createdAt,value
2023-04-17T00:01:11.743Z,85.11
2023-04-17T00:03:39.953Z,85.45
2023-04-17T00:06:07.053Z,85.25
2023-04-17T00:08:34.589Z,85.24
2023-04-17T00:11:07.772Z,85.32
2023-04-17T00:13:36.096Z,84.80
2023-04-17T00:16:34.092Z,85.10
2023-04-17T00:19:00.928Z,85.79
2023-04-17T00:25:27.843Z,86.70
2023-04-17T00:27:54.605Z,86.49
2023-04-17T00:30:21.279Z,86.19
2023-04-17T00:32:47.918Z,86.30
2023-04-17T00:35:14.877Z,86.34
2023-04-17T00:41:43.997Z,86.82
2023-04-17T00:48:13.462Z,86.01
2023-04-17T00:50:40.777Z,85.44
2023-04-17T00:53:50.309Z,84.96
2023-04-17T00:56:17.018Z,85.59
2023-04-17T00:58:44.314Z,85.42
2023-04-17T01:01:11.734Z,86.31
2023-04-17T01:03:38.693Z,86.31
2023-04-17T01:06:06.257Z,86.26
2023-04-17T01:08:43.833Z,86.14
2023-04-17T01:11:11.362Z,85.32
2023-04-17T01:13:48.922Z,85.58
2023-04-17T01:16:16.685Z,86.29
2023-04-17T01:22:43.892Z,86.37
2023-04-17T01:25:10.749Z,86.63
2023-04-17T01:27:39.249Z,87.60
2023-04-17T01:30:07.013Z,87.21
2023-04-17T01:32:42.578Z,87.52
2023-04-17T01:39:12.188Z,88.14
2023-04-17T01:42:04.084Z,87.38
2023-04-17T01:48:40.390Z,87.79
2023-04-17T01:51:07.283Z,87.61
2023-04-17T01:53:34.517Z,87.25
2023-04-17T01:56:02.073Z,86.32
2023-04-17T02:02:36.740Z,86.66
2023-04-17T02:05:07.575Z,86.73
2023-04-17T02:12:45.668Z,88.69
2023-04-17T02:15:41.436Z,89.59
2023-04-17T02:18:12.665Z,89.78
2023-04-17T02:25:41.575Z,91.14
2023-04-17T02:29:11.602Z,90.50
2023-04-17T02:31:41.978Z,90.17
2023-04-17T02:34:11.828Z,89.64
2023-04-17T02:36:40.440Z,89.49
2023-04-17T02:39:09.589Z,88.83
2023-04-17T02:41:39.474Z,89.32
2023-04-17T02:44:57.898Z,88.89
2023-04-17T02:52:02.820Z,88.67
2023-04-17T02:55:07.734Z,88.46
2023-04-17T03:01:41.307Z,87.75
2023-04-17T03:08:09.060Z,88.44
2023-04-17T03:10:44.312Z,88.26
2023-04-17T03:13:11.425Z,88.94
2023-04-17T03:15:38.278Z,88.27
2023-04-17T03:22:05.915Z,88.95
2023-04-17T03:28:32.887Z,88.74
2023-04-17T03:31:42.517Z,88.67
2023-04-17T03:34:09.452Z,89.49
2023-04-17T03:37:01.650Z,89.65
2023-04-17T03:43:39.991Z,90.18
2023-04-17T03:46:09.437Z,90.50
2023-04-17T03:49:12.739Z,90.86
2023-04-17T03:51:40.188Z,90.41
2023-04-17T03:54:38.569Z,90.60
2023-04-17T04:00:59.064Z,92.43
2023-04-17T04:07:30.994Z,92.46
2023-04-17T04:09:58.805Z,92.80
2023-04-17T04:12:26.820Z,92.27
2023-04-17T04:14:53.673Z,93.42
2023-04-17T04:17:20.632Z,93.60
2023-04-17T04:20:13.187Z,94.65
2023-04-17T04:26:47.545Z,94.87
2023-04-17T04:36:50.472Z,95.36
2023-04-17T04:43:33.940Z,94.75
2023-04-17T04:50:02.439Z,95.21
2023-04-17T04:53:07.457Z,96.19
2023-04-17T04:59:45.213Z,95.71
2023-04-17T05:06:31.504Z,92.11
2023-04-17T05:09:02.670Z,92.10
2023-04-17T05:11:31.165Z,91.85
2023-04-17T05:13:58.401Z,93.15
2023-04-17T05:16:29.059Z,92.85
2023-04-17T05:18:56.176Z,92.35
2023-04-17T05:21:41.785Z,92.58
2023-04-17T05:24:12.976Z,93.18
2023-04-17T05:26:40.125Z,93.34
2023-04-17T05:33:08.147Z,92.56
2023-04-17T05:35:56.357Z,93.30
2023-04-17T05:42:24.002Z,93.37
2023-04-17T05:44:51.249Z,92.83
2023-04-17T05:47:32.731Z,92.60
2023-04-17T05:50:00.226Z,92.59
2023-04-17T05:52:29.179Z,92.06
2023-04-17T05:58:52.448Z,92.60
2023-04-17T06:01:22.912Z,92.84
2023-04-17T06:03:56.011Z,92.57
2023-04-17T06:06:50.376Z,93.23
2023-04-17T06:09:17.397Z,92.72
2023-04-17T06:11:44.257Z,92.08
2023-04-17T06:14:12.537Z,90.96
2023-04-17T06:17:12.581Z,92.01
2023-04-17T06:19:39.905Z,91.94
2023-04-17T06:22:21.648Z,90.57
2023-04-17T06:24:49.090Z,90.65
2023-04-17T06:27:16.684Z,90.91
2023-04-17T06:29:43.508Z,91.86
2023-04-17T06:32:10.435Z,92.17
2023-04-17T06:34:52.266Z,92.50
2023-04-17T06:37:36.529Z,91.32
2023-04-17T06:40:04.195Z,90.99
2023-04-17T06:42:34.212Z,90.83
2023-04-17T06:45:07.180Z,88.64
2023-04-17T06:47:36.662Z,89.46
2023-04-17T06:50:03.731Z,88.87
2023-04-17T06:52:31.914Z,89.85
2023-04-17T06:54:59.300Z,90.47
2023-04-17T06:57:26.460Z,89.08
2023-04-17T06:59:53.368Z,90.31
2023-04-17T07:02:35.095Z,90.60
2023-04-17T07:05:02.133Z,90.67
2023-04-17T07:07:30.927Z,90.13
2023-04-17T07:09:57.868Z,90.48
2023-04-17T07:12:24.991Z,90.20
2023-04-17T07:14:51.813Z,90.94
2023-04-17T07:17:19.011Z,90.39
2023-04-17T07:19:46.732Z,90.46
2023-04-17T07:22:13.704Z,89.88
2023-04-17T07:24:41.299Z,88.18
2023-04-17T07:27:08.238Z,87.29
2023-04-17T07:29:35.637Z,88.22
2023-04-17T07:32:05.128Z,89.04
2023-04-17T07:34:34.451Z,88.10
2023-04-17T07:37:01.656Z,89.76
2023-04-17T07:39:31.896Z,90.52
2023-04-17T07:41:59.019Z,90.37
2023-04-17T07:44:26.004Z,89.48
2023-04-17T07:47:07.456Z,89.43
2023-04-17T07:49:34.542Z,89.79
2023-04-17T07:52:01.480Z,89.89
2023-04-17T07:54:53.417Z,90.67
2023-04-17T07:57:22.510Z,90.14
2023-04-17T07:59:49.441Z,89.63
2023-04-17T08:02:22.645Z,89.91
2023-04-17T08:04:50.010Z,88.36
2023-04-17T08:07:18.417Z,88.44
2023-04-17T08:09:45.213Z,87.30
2023-04-17T08:12:12.054Z,87.17
2023-04-17T08:14:40.862Z,85.05
2023-04-17T08:17:07.852Z,82.83
2023-04-17T08:19:34.884Z,81.29
2023-04-17T08:22:04.463Z,79.63
2023-04-17T08:24:31.994Z,79.86
2023-04-17T08:27:09.106Z,78.38
2023-04-17T08:29:35.940Z,80.60
2023-04-17T08:32:14.127Z,76.43
2023-04-17T08:34:42.748Z,76.83
2023-04-17T08:37:09.481Z,79.99
2023-04-17T08:39:36.301Z,79.94
2023-04-17T08:42:13.308Z,80.70
2023-04-17T08:44:44.650Z,80.43
2023-04-17T08:47:13.132Z,79.61
2023-04-17T08:49:43.646Z,79.19
2023-04-17T08:52:11.106Z,80.03
2023-04-17T08:54:39.144Z,80.47
2023-04-17T08:57:06.356Z,80.96
2023-04-17T08:59:33.463Z,80.72
2023-04-17T09:02:02.182Z,79.05
2023-04-17T09:04:44.153Z,77.57
2023-04-17T09:07:13.760Z,77.40
2023-04-17T09:09:51.454Z,77.00
2023-04-17T09:12:19.906Z,78.97
2023-04-17T09:14:46.835Z,78.15
2023-04-17T09:17:17.902Z,77.27
2023-04-17T09:20:09.268Z,76.29
2023-04-17T09:23:18.942Z,75.72
2023-04-17T09:25:46.496Z,75.83
2023-04-17T09:28:16.189Z,76.05
2023-04-17T09:31:02.116Z,76.19
2023-04-17T09:33:29.011Z,76.21
2023-04-17T09:35:56.168Z,73.85
2023-04-17T09:42:14.966Z,74.70
2023-04-17T09:44:42.364Z,75.02
2023-04-17T09:47:41.890Z,73.85
2023-04-17T09:50:09.308Z,73.16
2023-04-17T09:52:37.193Z,74.41
2023-04-17T09:55:07.537Z,73.76
2023-04-17T09:57:39.984Z,73.84
2023-04-17T10:00:13.415Z,73.54
2023-04-17T10:02:42.597Z,72.90
2023-04-17T10:05:11.668Z,69.79
2023-04-17T10:08:22.221Z,71.67
2023-04-17T10:10:52.746Z,70.61
2023-04-17T10:13:45.640Z,69.80
2023-04-17T10:20:39.066Z,69.32
2023-04-17T10:23:33.004Z,69.74
2023-04-17T10:26:25.082Z,69.78
2023-04-17T10:28:53.459Z,69.47
2023-04-17T10:31:21.302Z,70.87
2023-04-17T10:33:52.867Z,71.35
2023-04-17T10:36:38.311Z,71.71
2023-04-17T10:39:57.072Z,71.24
2023-04-17T10:42:24.562Z,71.61
2023-04-17T10:44:56.070Z,73.00
2023-04-17T10:47:30.093Z,72.52
2023-04-17T10:50:01.229Z,70.32
2023-04-17T10:52:46.392Z,71.47
2023-04-17T10:55:21.356Z,72.00
2023-04-17T10:58:00.942Z,70.64
2023-04-17T11:00:33.027Z,71.21
2023-04-17T11:03:05.596Z,71.63
2023-04-17T11:05:32.989Z,71.82
2023-04-17T11:08:00.148Z,72.21
2023-04-17T11:11:13.954Z,71.68
2023-04-17T11:13:45.945Z,73.77
2023-04-17T11:16:14.002Z,73.04
2023-04-17T11:18:41.599Z,72.46
2023-04-17T11:21:33.814Z,73.02
2023-04-17T11:24:02.919Z,74.57
2023-04-17T11:26:29.758Z,74.80
2023-04-17T11:28:56.690Z,74.69
2023-04-17T11:31:23.679Z,75.67
2023-04-17T11:33:50.554Z,78.42
2023-04-17T11:36:17.581Z,79.19
2023-04-17T11:38:48.528Z,80.57
2023-04-17T11:41:15.872Z,81.10
2023-04-17T11:43:44.153Z,82.51
2023-04-17T11:46:11.452Z,81.99
2023-04-17T11:48:38.290Z,83.45
2023-04-17T11:51:44.758Z,85.74
2023-04-17T11:54:29.866Z,87.62
2023-04-17T11:57:03.759Z,87.67
2023-04-17T11:59:34.849Z,88.70
2023-04-17T12:02:03.047Z,88.58
2023-04-17T12:04:34.068Z,89.05
2023-04-17T12:07:06.943Z,91.79
2023-04-17T12:09:35.042Z,91.42
2023-04-17T12:12:05.358Z,92.71
2023-04-17T12:14:32.495Z,92.57
2023-04-17T12:16:59.610Z,93.14
2023-04-17T12:19:39.713Z,93.83
2023-04-17T12:22:06.744Z,92.70
2023-04-17T12:24:33.611Z,90.97
2023-04-17T12:27:02.174Z,89.05
2023-04-17T12:29:47.316Z,87.90
2023-04-17T12:32:16.343Z,87.19
2023-04-17T12:34:43.086Z,85.47
2023-04-17T12:37:10.039Z,83.03
2023-04-17T12:39:36.844Z,81.83
2023-04-17T12:42:24.579Z,81.03
2023-04-17T12:44:54.491Z,80.86
2023-04-17T12:47:23.767Z,79.32
2023-04-17T12:49:50.692Z,79.71
2023-04-17T12:52:17.371Z,77.86
2023-04-17T12:54:44.051Z,78.39
2023-04-17T12:57:11.518Z,77.63
2023-04-17T12:59:39.740Z,78.01
2023-04-17T13:02:44.995Z,77.80
2023-04-17T13:05:12.056Z,77.94
2023-04-17T13:07:38.912Z,77.68
2023-04-17T13:10:08.946Z,75.77
2023-04-17T13:12:35.853Z,74.38
2023-04-17T13:15:02.714Z,74.74
2023-04-17T13:18:10.707Z,75.39
2023-04-17T13:20:37.898Z,77.03
2023-04-17T13:23:04.722Z,73.88
2023-04-17T13:25:32.310Z,74.03
2023-04-17T13:28:14.442Z,73.07
2023-04-17T13:31:12.030Z,73.39
2023-04-17T13:33:59.035Z,71.79
2023-04-17T13:36:26.339Z,70.08
2023-04-17T13:42:36.773Z,72.47
2023-04-17T13:45:04.652Z,70.54
2023-04-17T13:47:31.412Z,70.96
2023-04-17T13:49:58.420Z,70.03
2023-04-17T13:52:59.605Z,71.25
2023-04-17T13:55:26.417Z,68.78
2023-04-17T13:57:54.345Z,69.82
2023-04-17T14:00:22.215Z,68.91
2023-04-17T14:02:49.220Z,68.63
2023-04-17T14:05:16.415Z,68.51
2023-04-17T14:07:56.954Z,66.57
2023-04-17T14:10:23.729Z,68.12
2023-04-17T14:12:50.509Z,65.73
2023-04-17T14:15:17.421Z,64.06
2023-04-17T14:17:44.522Z,65.29
2023-04-17T14:20:12.522Z,67.70
2023-04-17T14:22:39.287Z,65.18
2023-04-17T14:25:06.715Z,65.02
2023-04-17T14:27:35.846Z,65.54
2023-04-17T14:30:03.038Z,66.99
2023-04-17T14:32:30.092Z,67.06
2023-04-17T14:34:57.073Z,67.47
2023-04-17T14:37:23.987Z,66.83
2023-04-17T14:39:50.953Z,66.77
2023-04-17T14:42:17.887Z,68.34
2023-04-17T14:44:45.078Z,66.32
2023-04-17T14:47:14.265Z,66.81
2023-04-17T14:49:41.463Z,67.12
2023-04-17T14:52:08.624Z,66.05
2023-04-17T14:54:35.845Z,66.08
2023-04-17T14:57:05.268Z,66.45
2023-04-17T14:59:32.283Z,66.58
2023-04-17T15:01:59.215Z,66.55
2023-04-17T15:04:42.551Z,66.21
2023-04-17T15:07:09.662Z,65.67
2023-04-17T15:09:36.681Z,65.76
2023-04-17T15:12:03.418Z,66.09
2023-04-17T15:14:30.242Z,66.21
2023-04-17T15:16:58.877Z,65.93
2023-04-17T15:19:26.060Z,65.38
2023-04-17T15:22:03.251Z,64.79
2023-04-17T15:24:31.599Z,65.48
2023-04-17T15:26:58.382Z,65.42
2023-04-17T15:29:46.234Z,65.17
2023-04-17T15:32:13.473Z,65.69
2023-04-17T15:34:40.470Z,64.72
2023-04-17T15:40:53.660Z,64.92
2023-04-17T15:43:21.544Z,65.29
2023-04-17T15:46:01.239Z,64.53
2023-04-17T15:48:28.157Z,65.86
2023-04-17T15:50:55.053Z,65.40
2023-04-17T15:53:22.037Z,65.57
2023-04-17T15:55:48.891Z,65.34
2023-04-17T15:58:16.438Z,65.21
2023-04-17T16:00:43.340Z,66.26
2023-04-17T16:03:10.582Z,66.89
2023-04-17T16:05:40.640Z,66.00
2023-04-17T16:08:07.577Z,67.31
2023-04-17T16:10:34.816Z,67.44
2023-04-17T16:17:01.366Z,68.24
2023-04-17T16:19:31.522Z,67.79
2023-04-17T16:21:59.128Z,67.32
2023-04-17T16:24:26.528Z,66.50
2023-04-17T16:26:55.647Z,66.55
2023-04-17T16:29:22.543Z,67.92
2023-04-17T16:31:49.392Z,67.67
2023-04-17T16:34:16.445Z,67.58
2023-04-17T16:36:45.327Z,68.27
2023-04-17T16:39:13.251Z,67.96
2023-04-17T16:41:40.594Z,67.60
2023-04-17T16:44:07.395Z,66.49
2023-04-17T16:50:18.210Z,66.40
2023-04-17T16:52:49.464Z,65.60
2023-04-17T16:55:16.804Z,65.48
2023-04-17T16:57:46.008Z,66.08
2023-04-17T17:00:56.669Z,66.69
2023-04-17T17:04:00.394Z,65.28
2023-04-17T17:06:27.411Z,64.69
2023-04-17T17:08:55.226Z,64.93
2023-04-17T17:11:22.470Z,64.86
2023-04-17T17:18:08.566Z,65.78
2023-04-17T17:20:35.469Z,65.41
2023-04-17T17:23:02.467Z,65.86
2023-04-17T17:25:29.407Z,65.39
2023-04-17T17:27:56.461Z,65.46
2023-04-17T17:30:33.382Z,64.98
2023-04-17T17:33:00.778Z,65.35
2023-04-17T17:35:27.581Z,65.27
2023-04-17T17:37:54.360Z,65.44
2023-04-17T17:40:21.183Z,65.75
2023-04-17T17:42:48.043Z,65.62
2023-04-17T17:45:14.988Z,65.75
2023-04-17T17:47:41.977Z,65.51
2023-04-17T17:50:09.181Z,65.34
2023-04-17T17:52:48.677Z,66.35
2023-04-17T17:59:04.623Z,65.82
2023-04-17T18:01:40.911Z,65.90
2023-04-17T18:04:08.113Z,65.28
2023-04-17T18:06:35.081Z,66.19
2023-04-17T18:09:05.027Z,66.02
2023-04-17T18:11:31.842Z,65.16
2023-04-17T18:14:00.973Z,65.52
2023-04-17T18:16:31.679Z,65.74
2023-04-17T18:19:04.864Z,65.61
2023-04-17T18:21:32.119Z,66.03
2023-04-17T18:23:59.176Z,65.57
2023-04-17T18:31:36.021Z,65.20
2023-04-17T18:38:17.930Z,64.81
2023-04-17T18:41:50.718Z,64.63
2023-04-17T18:44:17.516Z,64.50
2023-04-17T18:46:44.369Z,64.20
2023-04-17T18:49:11.122Z,63.31
2023-04-17T18:51:38.005Z,63.55
2023-04-17T18:54:04.918Z,63.94
2023-04-17T18:56:31.830Z,63.86
2023-04-17T18:58:58.609Z,63.33
2023-04-17T19:01:25.307Z,63.40
2023-04-17T19:03:53.107Z,63.34
2023-04-17T19:06:19.956Z,63.87
2023-04-17T19:08:46.867Z,63.26
2023-04-17T19:11:55.284Z,63.91
2023-04-17T19:14:22.249Z,63.63
2023-04-17T19:17:07.503Z,63.98
2023-04-17T19:20:38.937Z,64.24
2023-04-17T19:28:33.442Z,64.83
2023-04-17T19:35:25.007Z,67.67
2023-04-17T19:42:13.092Z,65.93
2023-04-17T19:44:39.723Z,66.17
2023-04-17T19:47:34.765Z,66.14
2023-04-17T19:51:10.525Z,67.44
2023-04-17T19:53:47.854Z,67.58
2023-04-17T19:56:17.270Z,67.06
2023-04-17T19:58:44.215Z,66.59
2023-04-17T20:01:10.989Z,66.87
2023-04-17T20:03:47.296Z,66.69
2023-04-17T20:06:14.720Z,67.78
2023-04-17T20:09:20.201Z,68.52
2023-04-17T20:11:47.059Z,67.55
2023-04-17T20:25:37.026Z,67.98
2023-04-17T20:28:28.971Z,68.06
2023-04-17T20:31:58.807Z,67.94
2023-04-17T20:34:35.144Z,68.39
2023-04-17T20:37:02.264Z,69.28
2023-04-17T20:43:13.283Z,68.46
2023-04-17T20:50:06.980Z,70.91
2023-04-17T21:10:57.396Z,73.35
2023-04-17T21:13:24.327Z,72.68
2023-04-17T21:16:28.987Z,73.30
2023-04-17T21:24:09.933Z,72.39
2023-04-17T21:30:58.425Z,72.48
2023-04-17T21:37:24.102Z,72.31
2023-04-17T21:45:06.134Z,73.26
2023-04-17T21:52:25.126Z,74.90
2023-04-17T21:58:53.303Z,73.27
2023-04-17T22:05:44.238Z,72.24
2023-04-17T22:08:35.977Z,72.25
2023-04-17T22:11:13.153Z,72.88
2023-04-17T22:27:29.922Z,71.03
2023-04-17T22:30:48.250Z,70.63
2023-04-17T22:33:40.235Z,69.88
2023-04-17T22:36:20.280Z,69.54
2023-04-17T22:39:36.792Z,69.24
2023-04-17T22:43:29.928Z,69.29
2023-04-17T22:50:30.723Z,69.72
2023-04-17T23:14:17.981Z,65.60
2023-04-17T23:21:41.083Z,65.43
2023-04-17T23:27:58.265Z,64.80
2023-04-17T23:34:39.440Z,64.20
2023-04-17T23:37:06.360Z,63.85
2023-04-17T23:39:33.216Z,63.67
2023-04-17T23:42:07.032Z,63.51
2023-04-17T23:44:35.171Z,63.90
2023-04-17T23:47:55.186Z,63.27
2023-04-17T23:54:38.906Z,63.50
2023-04-17T23:57:05.805Z,63.13
